x

Montauk Point -23 Nm Ssw Of Montauk Point, Ny (44017) Wave Buoy

9:50am - Tue 13th Nov 2018 All times are EST. -5 hours from GMT.

  • Sig Wave height 5.9ft
  • Swell Direction
  • Peak Period 7s
  • Average Period 5s
  • Wind
    29mph, 34mph gusts
  • Sea Temp 57°f
  • Air Temp 60°f
  • Sea Pressure 1008.6mb
  • Montauk Point -23 Nm Ssw Of Montauk Point, Ny
  • Montauk Point -23 Nm Ssw Of Montauk Point, Ny

More Historic Weather Station data

Upgrade to MSW Pro to gain access to the past 30 days of data for over 8000 Wavebouys and Weather Stations around the globe.

Join

Comparision Forecast

View Surf forecast
   
Tue 11/13 9:50am 6ft 7s 5s 29 34 mph 1008.6mb 57f 60f
8:50am 6ft 6s 5s 22 29 mph 1011.4mb 57f 57f
7:50am 6ft 6s 5s 20 25 mph 1015.2mb 57f 57f
6:50am 6ft 6s 5s 22 27 mph 1016.6mb 57f 57f
5:50am 6ft 6s 5s 25 31 mph 1017.3mb 57f 57f
4:50am 7ft 6s 5s 22 27 mph 1019.4mb 57f 56f
3:50am 6ft 6s 5s 25 29 mph 1020.9mb 57f 57f
2:50am 4.5ft 5s 4s 27 31 mph 1021.5mb 57f 57f
1:50am 2.5ft 4s 4s 13 16 mph 1023.6mb 57f 53f
12:50am 2.5ft 4s 4s 13 16 mph 1024.7mb 57f 53f
Mon 11/12 11:50pm 2.5ft 4s 4s 13 16 mph 1025.7mb 57f 54f
10:50pm 2.5ft 4s 4s 13 18 mph 1026.9mb 57f 54f
9:50pm 2.5ft 4s 4s 16 20 mph 1027.6mb 57f 53f
8:50pm 2.5ft 4s 4s 16 20 mph 1028.3mb 57f 52f
7:50pm 2ft 3s 4s 13 18 mph 1028.7mb 57f 51f
6:50pm 2ft 3s 4s 13 16 mph 1029.1mb 57f 51f
5:50pm 1.6ft 3s 3s 13 18 mph 1029.4mb 57f 50f
4:50pm 1.6ft 3s 3s 11 16 mph 1029.3mb 57f 50f
3:50pm 1.6ft 9s 4s 13 18 mph 1028.9mb 57f 50f
2:50pm 1.3ft 8s 4s 13 16 mph 1029.1mb 57f 50f
1:50pm 1.3ft 9s 4s 11 16 mph 1029.2mb 58f 49f
12:50pm 1.3ft 9s 5s 11 16 mph 1030mb 58f 49f
11:50am 1.3ft 9s 5s 9 11 mph 1030.8mb 58f 48f
10:50am 1.3ft 9s 5s 4 7 mph 1031.2mb 57f 48f
9:50am 1.3ft 14s 5s 4 7 mph 1031.4mb 57f 47f
8:50am 1.3ft 14s 5s 2 7 mph 1031.3mb 57f 47f
7:50am 1.3ft 14s 4s  -  2 mph 1030.7mb 56f 47f
6:50am 1.3ft 14s 5s 2 4 mph 1030.5mb 56f 45f
5:50am 1.3ft 15s 4s 2 4 mph 1030.5mb 56f 44f
4:50am 1.3ft 4s 4s 4 4 mph 1030.5mb 56f 44f
2:50am 1.6ft 4s 4s 4 7 mph 1029.9mb 56f 44f
1:50am 1.6ft 4s 4s 9 11 mph 1029.8mb 57f 44f
12:50am 2ft 4s 4s 9 11 mph 1029.5mb 57f 44f
Sun 11/11 11:50pm 2ft 3s 4s 9 13 mph 1029.2mb 57f 44f
10:50pm 2ft 4s 4s 13 16 mph 1028.9mb 57f 44f
9:50pm 2ft 5s 4s 13 18 mph 1028.5mb 57f 44f
8:50pm 2ft 5s 4s 11 16 mph 1027.9mb 57f 46f
7:50pm 2ft 5s 4s 11 16 mph 1027.6mb 57f 46f
6:50pm 2ft 4s 4s 11 18 mph 1027.5mb 57f 46f
5:50pm 2ft 4s 4s 13 18 mph 1027.2mb 57f 45f
4:50pm 2ft 3s 4s 13 20 mph 1026.7mb 57f 45f
3:50pm 2ft 3s 4s 16 20 mph 1026.3mb 57f 44f
2:50pm 2.5ft 5s 4s 16 22 mph 1026.1mb 57f 44f
1:50pm 2.5ft 5s 4s 11 16 mph 1026mb 57f 43f
12:50pm 2.5ft 5s 4s 11 18 mph 1026mb 57f 42f
10:50am 3ft 4s 4s 16 20 mph 1027mb 57f 42f
9:50am 3.5ft 5s 4s 16 22 mph 1027.1mb 57f 42f
8:50am 3.5ft 4s 4s 20 25 mph 1027.4mb 57f 42f
7:50am 3.5ft 6s 4s 18 22 mph 1027.1mb 57f 42f
6:50am 3.5ft 6s 4s 20 25 mph 1026.2mb 57f 42f
4:50am 4.5ft 6s 5s 20 27 mph 1025mb 57f 43f
1:50am 6ft 6s 5s 22 29 mph 1023.2mb 57f 43f
12:50am 6ft 6s 5s 25 29 mph 1022mb 57f 42f
Sat 11/10 11:50pm 6ft 6s 5s 29 36 mph 1021.3mb 57f 42f
10:50pm 6ft 7s 5s 29 36 mph 1020.7mb 57f 42f
9:50pm 6.5ft 7s 5s 29 38 mph 1020.6mb 57f 42f
8:50pm 6.5ft 7s 5s 27 34 mph 1020.1mb 57f 42f
7:50pm 6.5ft 7s 5s 25 31 mph 1019.6mb 57f 43f
5:50pm 8.5ft 8s 6s 34 40 mph 1017.9mb 57f 44f
4:50pm 9ft 7s 6s 31 38 mph 1016.6mb 57f 45f
3:50pm 8ft 8s 6s 34 40 mph 1014.7mb 57f 46f
2:50pm 8ft 8s 6s 29 40 mph 1013mb 57f 47f
1:50pm 9ft 7s 6s 29 36 mph 1011.9mb 57f 48f
12:50pm 8.5ft 7s 6s 31 38 mph 1011.1mb 57f 49f
11:50am 7.5ft 7s 5s 31 40 mph 1010.5mb 57f 49f
10:50am 7ft 6s 5s 27 34 mph 1010.2mb 57f 51f
9:50am 6ft 6s 5s 27 36 mph 1009.9mb 57f 50f
8:50am 6.5ft 5s 5s 31 38 mph 1009.5mb 57f 51f
7:50am 6.5ft 8s 5s 27 34 mph 1009.2mb 57f 51f
6:50am 6ft 8s 5s 25 29 mph 1008.5mb 57f 51f
5:50am 6.5ft 8s 6s 22 27 mph 1007.4mb 57f 53f
4:50am 7.5ft 8s 6s 9 13 mph 1006.8mb 58f 53f
3:50am 8ft 8s 6s 9 13 mph 1006.3mb 58f 53f
2:50am 8ft 8s 6s 9 11 mph 1005.6mb 58f 54f
1:50am 7ft 7s 5s 16 16 mph 1005.5mb 58f 55f
12:50am 7.5ft 7s 5s 22 27 mph 1004.7mb 58f 55f
Fri 11/09 11:50pm 8ft 7s 6s 27 31 mph 1004.3mb 58f 55f
10:50pm 9ft 7s 6s 22 34 mph 1006mb 58f 56f
9:50pm 8.5ft 7s 6s 34 38 mph 1007.4mb 58f 55f
8:50pm 7.5ft 7s 5s 31 38 mph 1010.5mb 58f 55f
7:50pm 6.5ft 6s 5s 31 38 mph 1012.8mb 58f 54f
6:50pm 7ft 6s 5s 27 34 mph 1015.2mb 58f 55f
5:50pm 6ft 6s 5s 25 29 mph 1017.7mb 58f 55f
4:50pm 5ft 6s 5s 22 29 mph 1018.7mb 58f 55f